createdAt,value
2023-12-03T00:01:00.972Z,3.40
2023-12-03T00:11:04.935Z,3.10
2023-12-03T00:21:10.332Z,3.03
2023-12-03T00:31:13.903Z,2.73
2023-12-03T00:41:18.154Z,3.20
2023-12-03T00:51:21.746Z,3.00
2023-12-03T01:01:26.107Z,2.93
2023-12-03T01:11:35.503Z,3.50
2023-12-03T01:21:41.027Z,3.03
2023-12-03T01:31:43.981Z,2.80
2023-12-03T01:41:48.669Z,3.30
2023-12-03T01:51:51.886Z,3.03
2023-12-03T02:01:56.277Z,3.40
2023-12-03T02:11:59.427Z,3.83
2023-12-03T02:22:03.862Z,3.57
2023-12-03T02:32:08.633Z,2.43
2023-12-03T02:42:11.497Z,3.77
2023-12-03T02:52:15.806Z,4.87
2023-12-03T03:02:18.727Z,3.90
2023-12-03T03:12:23.023Z,4.80
2023-12-03T03:22:25.914Z,5.07
2023-12-03T03:32:30.318Z,5.00
2023-12-03T03:42:33.240Z,5.43
2023-12-03T03:52:38.717Z,5.07
2023-12-03T04:02:41.702Z,4.07
2023-12-03T04:12:45.952Z,4.80
2023-12-03T04:22:48.932Z,5.13
2023-12-03T04:32:53.233Z,6.57
2023-12-03T04:42:56.218Z,3.67
2023-12-03T04:53:00.592Z,4.33
2023-12-03T05:03:03.518Z,4.53
2023-12-03T05:13:07.820Z,5.73
2023-12-03T05:23:11.443Z,4.20
2023-12-03T05:33:16.022Z,5.87
2023-12-03T05:43:19.086Z,4.70
2023-12-03T05:53:23.312Z,8.80
2023-12-03T06:03:26.211Z,5.90
2023-12-03T06:13:30.749Z,5.53
2023-12-03T06:23:33.621Z,4.53
2023-12-03T06:33:38.310Z,4.07
2023-12-03T06:43:41.308Z,3.70
2023-12-03T06:53:45.636Z,3.77
2023-12-03T07:03:48.639Z,5.53
2023-12-03T07:13:52.992Z,5.43
2023-12-03T07:23:55.966Z,5.13
2023-12-03T07:34:00.671Z,5.03
2023-12-03T07:44:03.602Z,5.10
2023-12-03T07:54:08.025Z,6.10
2023-12-03T08:04:11.121Z,5.63
2023-12-03T08:14:15.637Z,5.47
2023-12-03T08:24:18.525Z,4.33
2023-12-03T08:34:22.994Z,5.03
2023-12-03T08:44:26.978Z,6.13
2023-12-03T08:54:32.023Z,5.80
2023-12-03T09:04:34.960Z,6.07
2023-12-03T09:14:39.322Z,6.37
2023-12-03T09:24:42.305Z,5.53
2023-12-03T09:34:46.676Z,5.77
2023-12-03T09:44:53.846Z,4.97
2023-12-03T09:54:59.878Z,5.40
2023-12-03T10:05:03.220Z,5.63
2023-12-03T10:15:09.951Z,5.97
2023-12-03T10:25:13.407Z,5.33
2023-12-03T10:35:19.721Z,6.17
2023-12-03T10:45:25.098Z,8.43
2023-12-03T10:55:30.021Z,5.87
2023-12-03T11:05:35.623Z,5.97
2023-12-03T11:15:40.259Z,6.00
2023-12-03T11:25:48.318Z,4.80
2023-12-03T11:35:53.064Z,6.40
2023-12-03T11:45:56.316Z,5.33
2023-12-03T11:56:00.914Z,5.33
2023-12-03T12:06:03.837Z,5.27
2023-12-03T12:16:12.216Z,6.30
2023-12-03T12:26:15.576Z,5.47
2023-12-03T12:36:20.021Z,5.97
2023-12-03T12:46:23.400Z,8.30
2023-12-03T12:56:27.771Z,5.80
2023-12-03T13:06:33.292Z,7.50
2023-12-03T13:16:38.184Z,5.57
2023-12-03T13:26:41.567Z,5.70
2023-12-03T13:36:45.845Z,7.07
2023-12-03T13:46:48.735Z,6.80
2023-12-03T13:56:52.993Z,6.28
2023-12-03T14:06:55.939Z,6.03
2023-12-03T14:17:01.368Z,6.85
2023-12-03T14:27:04.620Z,7.38
2023-12-03T14:37:09.014Z,7.18
2023-12-03T14:47:12.009Z,7.70
2023-12-03T14:57:16.234Z,6.30
2023-12-03T15:07:19.308Z,6.43
2023-12-03T15:17:23.563Z,6.23
2023-12-03T15:27:26.803Z,6.07
2023-12-03T15:37:31.198Z,6.13
2023-12-03T15:47:34.828Z,8.10
2023-12-03T15:57:39.418Z,6.20
2023-12-03T16:07:43.538Z,6.43
2023-12-03T16:17:48.027Z,6.10
2023-12-03T16:27:51.081Z,5.97
2023-12-03T16:37:55.911Z,7.03
2023-12-03T16:48:00.494Z,9.23
2023-12-03T16:58:05.150Z,6.03
2023-12-03T17:08:08.061Z,6.33
2023-12-03T17:18:12.490Z,6.33
2023-12-03T17:28:17.593Z,5.80
2023-12-03T17:38:23.104Z,3.90
2023-12-03T17:48:26.046Z,6.40
2023-12-03T17:58:30.619Z,5.67
2023-12-03T18:08:33.479Z,4.37
2023-12-03T18:18:37.892Z,5.60
2023-12-03T18:28:42.300Z,4.63
2023-12-03T18:38:46.795Z,4.53
2023-12-03T18:48:50.026Z,4.83
2023-12-03T18:58:54.391Z,4.97
2023-12-03T19:08:57.668Z,5.37
2023-12-03T19:19:02.118Z,5.93
2023-12-03T19:29:05.361Z,4.73
2023-12-03T19:39:09.678Z,4.10
2023-12-03T19:49:12.592Z,5.07
2023-12-03T19:59:17.015Z,5.10
2023-12-03T20:09:20.029Z,4.27
2023-12-03T20:19:26.970Z,4.60
2023-12-03T20:29:31.169Z,4.90
2023-12-03T20:39:35.978Z,4.73
2023-12-03T20:49:39.106Z,4.23
2023-12-03T20:59:43.615Z,4.10
2023-12-03T21:09:46.716Z,4.97
2023-12-03T21:19:51.526Z,4.83
2023-12-03T21:29:54.778Z,4.10
2023-12-03T21:40:03.126Z,4.27
2023-12-03T21:50:07.550Z,4.87
2023-12-03T22:00:16.246Z,4.93
2023-12-03T22:10:19.674Z,4.67
2023-12-03T22:20:24.161Z,4.27
2023-12-03T22:30:27.094Z,3.73
2023-12-03T22:40:31.504Z,4.30
2023-12-03T22:50:34.769Z,4.90
2023-12-03T23:00:39.287Z,4.63
2023-12-03T23:10:42.580Z,4.67
2023-12-03T23:20:46.896Z,4.13
2023-12-03T23:30:50.172Z,4.03
2023-12-03T23:40:54.492Z,3.63
2023-12-03T23:50:57.638Z,4.40
